createdAt,value
2023-03-24T00:02:42.052Z,13.00
2023-03-24T00:05:45.411Z,13.00
2023-03-24T00:08:48.720Z,13.00
2023-03-24T00:11:53.324Z,15.00
2023-03-24T00:14:56.503Z,14.80
2023-03-24T00:17:59.788Z,14.00
2023-03-24T00:21:03.093Z,14.00
2023-03-24T00:24:08.670Z,14.40
2023-03-24T00:27:15.766Z,14.60
2023-03-24T00:30:20.473Z,13.20
2023-03-24T00:33:24.204Z,14.00
2023-03-24T00:36:29.607Z,14.20
2023-03-24T00:39:34.018Z,12.20
2023-03-24T00:42:39.468Z,13.40
2023-03-24T00:45:46.300Z,12.00
2023-03-24T00:48:51.306Z,14.00
2023-03-24T00:51:54.468Z,12.20
2023-03-24T00:54:58.942Z,11.80
2023-03-24T00:58:03.541Z,13.00
2023-03-24T01:01:07.535Z,12.00
2023-03-24T01:04:11.397Z,11.00
2023-03-24T01:07:18.374Z,12.80
2023-03-24T01:10:26.402Z,12.40
2023-03-24T01:13:32.045Z,13.40
2023-03-24T01:16:36.139Z,13.33
2023-03-24T01:19:40.844Z,14.00
2023-03-24T01:22:46.406Z,13.20
2023-03-24T01:25:50.314Z,11.00
2023-03-24T01:28:55.105Z,14.00
2023-03-24T01:31:58.521Z,10.80
2023-03-24T01:35:01.868Z,14.40
2023-03-24T01:38:08.005Z,13.00
2023-03-24T01:41:11.688Z,11.00
2023-03-24T01:44:28.957Z,12.25
2023-03-24T01:47:35.185Z,12.00
2023-03-24T01:50:39.577Z,13.00
2023-03-24T01:53:46.979Z,13.60
2023-03-24T01:56:56.840Z,13.60
2023-03-24T02:00:12.644Z,13.00
2023-03-24T02:03:22.785Z,12.60
2023-03-24T02:06:32.242Z,12.00
2023-03-24T02:09:36.012Z,10.40
2023-03-24T02:12:39.470Z,13.00
2023-03-24T02:15:54.661Z,13.00
2023-03-24T02:19:25.114Z,15.00
2023-03-24T02:22:46.776Z,14.00
2023-03-24T02:26:26.520Z,12.00
2023-03-24T02:30:17.626Z,11.00
2023-03-24T02:33:54.646Z,11.40
2023-03-24T02:37:29.405Z,14.60
2023-03-24T02:40:45.976Z,11.40
2023-03-24T02:43:58.691Z,10.00
2023-03-24T02:47:06.442Z,11.00
2023-03-24T02:50:18.449Z,14.00
2023-03-24T02:53:28.980Z,12.40
2023-03-24T02:56:59.532Z,13.00
2023-03-24T03:00:32.915Z,11.00
2023-03-24T03:03:47.081Z,11.60
2023-03-24T03:06:56.001Z,11.00
2023-03-24T03:10:04.102Z,11.00
2023-03-24T03:13:15.919Z,10.00
2023-03-24T03:16:25.478Z,13.40
2023-03-24T03:19:34.473Z,11.40
2023-03-24T03:22:43.515Z,12.00
2023-03-24T03:25:51.589Z,11.40
2023-03-24T03:29:00.818Z,12.00
2023-03-24T03:32:10.796Z,11.00
2023-03-24T03:35:19.465Z,11.00
2023-03-24T03:38:30.391Z,12.00
2023-03-24T03:41:33.738Z,9.20
2023-03-24T03:44:38.680Z,12.40
2023-03-24T03:47:42.305Z,11.00
2023-03-24T03:50:46.537Z,12.00
2023-03-24T03:53:53.694Z,11.00
2023-03-24T03:56:57.740Z,12.00
2023-03-24T04:00:10.151Z,11.40
2023-03-24T04:03:50.480Z,11.20
2023-03-24T04:07:08.709Z,11.50
2023-03-24T04:10:23.879Z,12.00
2023-03-24T04:13:39.637Z,10.80
2023-03-24T04:17:06.178Z,10.00
2023-03-24T04:20:22.448Z,11.00
2023-03-24T04:23:33.602Z,10.00
2023-03-24T04:26:45.453Z,11.00
2023-03-24T04:30:00.235Z,11.00
2023-03-24T04:33:17.673Z,12.00
2023-03-24T04:36:32.109Z,10.40
2023-03-24T04:40:07.530Z,10.20
2023-03-24T04:43:15.019Z,10.50
2023-03-24T04:46:19.197Z,10.00
2023-03-24T04:49:38.729Z,10.50
2023-03-24T04:52:43.764Z,9.60
2023-03-24T04:56:01.536Z,11.00
2023-03-24T04:59:26.031Z,12.40
2023-03-24T05:02:29.688Z,11.20
2023-03-24T05:05:43.809Z,10.00
2023-03-24T05:08:47.565Z,13.50
2023-03-24T05:11:51.879Z,10.80
2023-03-24T05:14:56.205Z,13.00
2023-03-24T05:18:01.037Z,13.60
2023-03-24T05:21:07.797Z,13.20
2023-03-24T05:24:13.497Z,13.40
2023-03-24T05:27:17.339Z,11.80
2023-03-24T05:30:21.030Z,11.00
2023-03-24T05:33:27.302Z,12.00
2023-03-24T05:36:32.397Z,12.50
2023-03-24T05:39:36.355Z,12.00
2023-03-24T05:42:44.310Z,13.25
2023-03-24T05:45:49.803Z,14.75
2023-03-24T05:49:02.980Z,12.20
2023-03-24T05:52:12.740Z,12.60
2023-03-24T05:55:19.467Z,13.00
2023-03-24T05:58:26.130Z,13.40
2023-03-24T06:01:32.806Z,15.25
2023-03-24T06:04:49.306Z,13.60
2023-03-24T06:07:58.625Z,11.20
2023-03-24T06:11:06.700Z,11.20
2023-03-24T06:14:20.674Z,13.40
2023-03-24T06:17:37.540Z,14.00
2023-03-24T06:20:51.916Z,13.00
2023-03-24T06:24:03.982Z,13.00
2023-03-24T06:27:09.074Z,14.00
2023-03-24T06:30:14.087Z,11.00
2023-03-24T06:33:17.818Z,12.00
2023-03-24T06:36:23.874Z,12.00
2023-03-24T06:39:29.168Z,10.00
2023-03-24T06:42:34.841Z,11.00
2023-03-24T06:45:39.587Z,11.00
2023-03-24T06:48:46.361Z,12.00
2023-03-24T06:51:49.898Z,12.60
2023-03-24T06:54:55.892Z,10.00
2023-03-24T06:57:59.207Z,11.60
2023-03-24T07:01:16.155Z,12.00
2023-03-24T07:04:36.560Z,12.67
2023-03-24T07:11:15.064Z,12.00
2023-03-24T07:14:26.667Z,13.00
2023-03-24T07:17:31.706Z,13.60
2023-03-24T07:20:52.532Z,10.00
2023-03-24T07:23:58.148Z,10.80
2023-03-24T07:27:12.453Z,12.75
2023-03-24T07:30:16.437Z,11.00
2023-03-24T07:33:21.922Z,11.00
2023-03-24T07:36:25.274Z,12.00
2023-03-24T07:39:28.616Z,11.25
2023-03-24T07:42:33.716Z,15.00
2023-03-24T07:45:55.885Z,11.00
2023-03-24T07:49:05.720Z,11.40
2023-03-24T07:52:12.291Z,10.80
2023-03-24T07:55:19.341Z,10.00
2023-03-24T07:58:31.488Z,11.00
2023-03-24T08:01:52.569Z,10.00
2023-03-24T08:05:10.424Z,11.00
2023-03-24T08:08:24.631Z,10.00
2023-03-24T08:11:28.027Z,10.00
2023-03-24T08:14:32.703Z,10.00
2023-03-24T08:17:36.931Z,11.00
2023-03-24T08:20:40.473Z,10.00
2023-03-24T08:23:43.712Z,11.00
2023-03-24T08:26:48.129Z,11.00
2023-03-24T08:29:52.807Z,11.40
2023-03-24T08:32:59.422Z,12.00
2023-03-24T08:36:02.950Z,10.00
2023-03-24T08:39:09.881Z,10.25
2023-03-24T08:42:13.193Z,9.00
2023-03-24T08:45:21.172Z,10.80
2023-03-24T08:48:24.540Z,10.80
2023-03-24T08:51:28.720Z,9.00
2023-03-24T08:54:32.040Z,10.00
2023-03-24T08:57:35.302Z,10.00
2023-03-24T09:00:39.951Z,11.00
2023-03-24T09:03:44.833Z,8.00
2023-03-24T09:06:48.052Z,10.00
2023-03-24T09:09:51.458Z,9.00
2023-03-24T09:12:54.642Z,9.00
2023-03-24T09:16:02.559Z,9.00
2023-03-24T09:19:05.867Z,9.00
2023-03-24T09:22:09.175Z,8.00
2023-03-24T09:25:14.953Z,9.00
2023-03-24T09:28:18.326Z,9.00
2023-03-24T09:31:23.105Z,9.60
2023-03-24T09:34:26.473Z,7.00
2023-03-24T09:37:31.257Z,9.00
2023-03-24T09:40:38.347Z,8.67
2023-03-24T09:43:45.360Z,7.00
2023-03-24T09:46:53.751Z,8.80
2023-03-24T09:50:02.004Z,9.00
2023-03-24T09:53:11.181Z,9.60
2023-03-24T09:56:17.543Z,7.00
2023-03-24T09:59:22.678Z,7.00
2023-03-24T10:02:31.102Z,8.00
2023-03-24T10:05:38.905Z,9.00
2023-03-24T10:08:44.287Z,8.40
2023-03-24T10:11:54.300Z,8.00
2023-03-24T10:15:11.226Z,9.00
2023-03-24T10:18:32.836Z,10.00
2023-03-24T10:21:38.033Z,8.00
2023-03-24T10:24:48.368Z,8.00
2023-03-24T10:27:57.321Z,7.00
2023-03-24T10:31:06.009Z,7.00
2023-03-24T10:34:14.342Z,7.00
2023-03-24T10:37:17.610Z,8.00
2023-03-24T10:40:24.969Z,8.00
2023-03-24T10:43:29.686Z,9.50
2023-03-24T10:46:33.317Z,7.80
2023-03-24T10:49:38.246Z,6.00
2023-03-24T10:52:42.520Z,6.40
2023-03-24T10:55:45.923Z,8.00
2023-03-24T10:58:49.591Z,7.00
2023-03-24T11:01:59.022Z,8.00
2023-03-24T11:05:15.569Z,6.00
2023-03-24T11:08:28.732Z,8.00
2023-03-24T11:11:33.676Z,8.00
2023-03-24T11:14:46.169Z,7.00
2023-03-24T11:17:55.134Z,7.00
2023-03-24T11:21:04.332Z,7.00
2023-03-24T11:24:12.495Z,9.40
2023-03-24T11:27:18.568Z,6.00
2023-03-24T11:30:21.844Z,5.50
2023-03-24T11:33:34.974Z,5.00
2023-03-24T11:36:49.689Z,6.00
2023-03-24T11:40:17.791Z,5.80
2023-03-24T11:43:22.580Z,6.00
2023-03-24T11:46:26.737Z,8.00
2023-03-24T11:49:32.926Z,7.40
2023-03-24T11:52:44.007Z,7.00
2023-03-24T11:55:55.944Z,5.33
2023-03-24T11:59:09.156Z,6.50
2023-03-24T12:02:21.961Z,5.00
2023-03-24T12:05:35.846Z,6.00
2023-03-24T12:08:57.090Z,3.20
2023-03-24T12:12:18.911Z,4.00
2023-03-24T12:15:33.730Z,4.20
2023-03-24T12:18:56.923Z,6.67
2023-03-24T12:22:11.029Z,5.00
2023-03-24T12:25:39.413Z,5.00
2023-03-24T12:28:56.212Z,6.00
2023-03-24T12:32:23.584Z,4.75
2023-03-24T12:35:45.770Z,5.80
2023-03-24T12:39:03.005Z,5.00
2023-03-24T12:42:12.787Z,7.00
2023-03-24T12:45:37.882Z,5.00
2023-03-24T12:49:15.321Z,4.00
2023-03-24T12:52:33.258Z,5.00
2023-03-24T12:55:43.412Z,5.00
2023-03-24T12:58:51.599Z,5.20
2023-03-24T13:02:00.719Z,4.25
2023-03-24T13:05:09.166Z,5.00
2023-03-24T13:08:17.732Z,4.00
2023-03-24T13:11:33.301Z,4.40
2023-03-24T13:14:50.634Z,6.50
2023-03-24T13:18:06.366Z,5.80
2023-03-24T13:21:14.233Z,5.60
2023-03-24T13:24:21.013Z,5.00
2023-03-24T13:27:26.272Z,5.00
2023-03-24T13:30:38.235Z,5.00
2023-03-24T13:33:44.377Z,5.00
2023-03-24T13:36:51.991Z,4.00
2023-03-24T13:39:57.886Z,7.00
2023-03-24T13:43:08.401Z,5.00
2023-03-24T13:46:14.957Z,5.40
2023-03-24T13:49:18.543Z,5.60
2023-03-24T13:52:29.076Z,5.60
2023-03-24T13:55:38.678Z,6.00
2023-03-24T13:59:07.514Z,6.00
2023-03-24T14:02:22.030Z,6.00
2023-03-24T14:05:35.778Z,7.00
2023-03-24T14:08:44.927Z,5.00
2023-03-24T14:12:09.800Z,5.00
2023-03-24T14:15:21.867Z,4.00
2023-03-24T14:18:44.418Z,5.40
2023-03-24T14:21:53.788Z,6.00
2023-03-24T14:25:01.147Z,7.00
2023-03-24T14:28:24.013Z,6.40
2023-03-24T14:31:31.004Z,7.80
2023-03-24T14:34:37.921Z,6.75
2023-03-24T14:37:50.979Z,6.00
2023-03-24T14:40:59.272Z,6.00
2023-03-24T14:44:03.002Z,7.00
2023-03-24T14:47:06.463Z,5.40
2023-03-24T14:50:18.826Z,5.20
2023-03-24T14:53:24.695Z,6.25
2023-03-24T14:56:34.582Z,5.00
2023-03-24T14:59:48.356Z,6.00
2023-03-24T15:02:54.495Z,5.00
2023-03-24T15:06:13.994Z,7.00
2023-03-24T15:09:18.677Z,6.00
2023-03-24T15:12:22.422Z,6.00
2023-03-24T15:15:26.225Z,7.00
2023-03-24T15:18:29.505Z,6.00
2023-03-24T15:21:37.209Z,5.40
2023-03-24T15:24:43.476Z,6.50
2023-03-24T15:27:51.078Z,7.00
2023-03-24T15:30:56.252Z,8.00
2023-03-24T15:34:26.730Z,6.00
2023-03-24T15:37:40.060Z,6.75
2023-03-24T15:40:55.116Z,7.00
2023-03-24T15:43:59.319Z,7.00
2023-03-24T15:47:04.450Z,7.60
2023-03-24T15:50:23.470Z,9.00
2023-03-24T15:53:30.694Z,10.00
2023-03-24T15:56:34.394Z,7.00
2023-03-24T15:59:38.157Z,8.40
2023-03-24T16:02:44.206Z,8.20
2023-03-24T16:05:51.147Z,8.40
2023-03-24T16:08:57.009Z,8.00
2023-03-24T16:12:00.446Z,11.50
2023-03-24T16:15:05.810Z,10.00
2023-03-24T16:18:15.026Z,10.60
2023-03-24T16:21:20.624Z,9.00
2023-03-24T16:24:25.510Z,8.80
2023-03-24T16:27:28.755Z,13.00
2023-03-24T16:30:39.256Z,11.00
2023-03-24T16:33:42.617Z,9.00
2023-03-24T16:36:46.631Z,9.20
2023-03-24T16:39:51.184Z,9.00
2023-03-24T16:42:54.471Z,9.25
2023-03-24T16:45:57.660Z,9.40
2023-03-24T16:49:02.072Z,10.50
2023-03-24T16:52:05.905Z,7.75
2023-03-24T16:55:11.895Z,10.40
2023-03-24T16:58:17.559Z,10.00
2023-03-24T17:01:28.666Z,8.60
2023-03-24T17:04:34.049Z,8.20
2023-03-24T17:07:37.278Z,7.75
2023-03-24T17:10:43.487Z,10.00
2023-03-24T17:13:46.781Z,8.00
2023-03-24T17:16:52.892Z,9.00
2023-03-24T17:19:57.583Z,6.25
2023-03-24T17:23:00.867Z,10.00
2023-03-24T17:26:05.992Z,8.00
2023-03-24T17:29:11.539Z,6.60
2023-03-24T17:32:14.939Z,9.00
2023-03-24T17:35:20.370Z,6.40
2023-03-24T17:38:23.973Z,7.00
2023-03-24T17:41:28.625Z,7.50
2023-03-24T17:44:32.037Z,6.00
2023-03-24T17:47:35.456Z,6.00
2023-03-24T17:50:38.752Z,7.00
2023-03-24T17:53:45.156Z,6.00
2023-03-24T17:56:49.885Z,6.00
2023-03-24T17:59:53.771Z,6.00
2023-03-24T18:02:57.043Z,9.20
2023-03-24T18:06:07.620Z,7.00
2023-03-24T18:09:11.193Z,7.00
2023-03-24T18:12:16.568Z,8.00
2023-03-24T18:15:19.906Z,9.00
2023-03-24T18:18:23.261Z,6.50
2023-03-24T18:21:26.822Z,10.00
2023-03-24T18:24:30.084Z,7.40
2023-03-24T18:27:34.897Z,9.20
2023-03-24T18:30:38.192Z,10.00
2023-03-24T18:33:42.927Z,8.00
2023-03-24T18:36:47.537Z,9.00
2023-03-24T18:39:50.762Z,10.00
2023-03-24T18:42:55.417Z,11.00
2023-03-24T18:45:58.935Z,12.00
2023-03-24T18:49:02.277Z,12.00
2023-03-24T18:52:07.730Z,14.40
2023-03-24T18:55:12.261Z,13.40
2023-03-24T18:58:18.206Z,11.00
2023-03-24T19:01:23.577Z,14.00
2023-03-24T19:04:27.166Z,11.00
2023-03-24T19:07:30.420Z,10.50
2023-03-24T19:10:35.124Z,9.40
2023-03-24T19:13:39.979Z,9.50
2023-03-24T19:16:43.223Z,7.00
2023-03-24T19:19:46.562Z,9.00
2023-03-24T19:22:49.858Z,12.00
2023-03-24T19:25:55.105Z,10.00
2023-03-24T19:28:59.772Z,13.00
2023-03-24T19:32:03.007Z,11.00
2023-03-24T19:35:07.313Z,9.50
2023-03-24T19:38:10.978Z,13.00
2023-03-24T19:41:16.011Z,9.20
2023-03-24T19:44:22.421Z,12.40
2023-03-24T19:47:25.810Z,12.00
2023-03-24T19:50:29.141Z,12.20
2023-03-24T19:53:32.393Z,12.00
2023-03-24T19:56:35.709Z,12.00
2023-03-24T19:59:40.329Z,12.00
2023-03-24T20:02:44.225Z,11.40
2023-03-24T20:05:47.923Z,13.00
2023-03-24T20:08:51.453Z,12.40
2023-03-24T20:11:54.708Z,12.80
2023-03-24T20:15:00.281Z,14.00
2023-03-24T20:18:03.755Z,14.00
2023-03-24T20:21:08.499Z,11.50
2023-03-24T20:24:11.956Z,11.20
2023-03-24T20:27:16.071Z,12.00
2023-03-24T20:30:21.407Z,9.00
2023-03-24T20:33:24.685Z,11.00
2023-03-24T20:36:27.925Z,10.00
2023-03-24T20:39:31.430Z,10.00
2023-03-24T20:42:35.450Z,13.20
2023-03-24T20:45:40.126Z,11.20
2023-03-24T20:48:43.446Z,9.00
2023-03-24T20:51:47.449Z,10.00
2023-03-24T20:54:51.502Z,10.80
2023-03-24T20:57:55.975Z,12.00
2023-03-24T21:01:03.681Z,12.00
2023-03-24T21:04:09.282Z,10.00
2023-03-24T21:07:12.883Z,13.00
2023-03-24T21:10:16.432Z,13.00
2023-03-24T21:13:21.629Z,12.40
2023-03-24T21:16:26.957Z,9.00
2023-03-24T21:19:30.261Z,10.40
2023-03-24T21:22:47.479Z,13.00
2023-03-24T21:25:51.812Z,13.40
2023-03-24T21:28:55.584Z,11.00
2023-03-24T21:32:00.402Z,11.67
2023-03-24T21:35:04.986Z,13.00
2023-03-24T21:38:09.578Z,12.40
2023-03-24T21:41:13.076Z,11.40
2023-03-24T21:44:16.271Z,13.00
2023-03-24T21:47:20.926Z,16.00
2023-03-24T21:50:24.290Z,14.60
2023-03-24T21:53:28.326Z,12.50
2023-03-24T21:56:32.737Z,14.00
2023-03-24T21:59:37.790Z,13.00
2023-03-24T22:02:45.604Z,12.00
2023-03-24T22:05:49.095Z,9.80
2023-03-24T22:08:53.313Z,14.60
2023-03-24T22:11:58.954Z,11.00
2023-03-24T22:15:02.500Z,11.60
2023-03-24T22:18:07.466Z,12.67
2023-03-24T22:21:11.662Z,11.40
2023-03-24T22:24:15.215Z,9.33
2023-03-24T22:27:18.460Z,11.00
2023-03-24T22:30:22.087Z,12.60
2023-03-24T22:33:26.644Z,12.00
2023-03-24T22:36:30.067Z,9.00
2023-03-24T22:39:34.103Z,10.40
2023-03-24T22:42:37.391Z,9.00
2023-03-24T22:45:40.604Z,11.00
2023-03-24T22:48:46.238Z,12.00
2023-03-24T22:51:49.464Z,9.00
2023-03-24T22:54:52.695Z,8.00
2023-03-24T22:57:55.973Z,8.20
2023-03-24T23:00:59.245Z,8.80
2023-03-24T23:04:03.868Z,9.20
2023-03-24T23:07:07.789Z,10.00
2023-03-24T23:10:12.933Z,8.00
2023-03-24T23:13:17.106Z,10.00
2023-03-24T23:16:21.882Z,9.50
2023-03-24T23:19:27.512Z,10.00
2023-03-24T23:22:31.752Z,8.00
2023-03-24T23:25:35.387Z,8.40
2023-03-24T23:28:38.683Z,9.80
2023-03-24T23:31:41.966Z,10.25
2023-03-24T23:34:48.819Z,10.00
2023-03-24T23:37:52.084Z,9.60
2023-03-24T23:40:55.399Z,9.00
2023-03-24T23:43:58.560Z,9.00
2023-03-24T23:47:02.044Z,9.80
2023-03-24T23:50:08.084Z,11.20
2023-03-24T23:53:11.327Z,11.20
2023-03-24T23:56:15.028Z,12.00
2023-03-24T23:59:18.785Z,11.40
